sensor_id;sensor_type;location;lat;lon;timestamp;P1;durP1;ratioP1;P2;durP2;ratioP2
34559;SDS011;20800;55.870;37.328;2022-07-09T09:41:29;7.18;;;3.85;;
34559;SDS011;20800;55.870;37.328;2022-07-09T09:43:57;6.93;;;4.50;;
34559;SDS011;20800;55.870;37.328;2022-07-09T09:46:23;5.97;;;5.47;;
34559;SDS011;20800;55.870;37.328;2022-07-09T09:48:50;6.43;;;5.45;;
34559;SDS011;20800;55.870;37.328;2022-07-09T09:51:16;5.22;;;4.72;;
34559;SDS011;20800;55.870;37.328;2022-07-09T09:53:45;7.53;;;4.32;;
34559;SDS011;20800;55.870;37.328;2022-07-09T09:56:12;4.30;;;3.95;;
34559;SDS011;20800;55.870;37.328;2022-07-09T09:58:38;4.20;;;3.80;;
34559;SDS011;20800;55.870;37.328;2022-07-09T10:01:05;3.85;;;3.50;;
34559;SDS011;20800;55.870;37.328;2022-07-09T10:03:32;4.20;;;3.72;;
34559;SDS011;20800;55.870;37.328;2022-07-09T10:05:59;4.18;;;3.55;;
34559;SDS011;20800;55.870;37.328;2022-07-09T10:08:25;3.35;;;3.03;;
34559;SDS011;20800;55.870;37.328;2022-07-09T10:10:51;5.88;;;3.78;;
34559;SDS011;20800;55.870;37.328;2022-07-09T10:13:21;5.72;;;3.63;;
34559;SDS011;20800;55.870;37.328;2022-07-09T10:15:48;4.65;;;4.25;;
34559;SDS011;20800;55.870;37.328;2022-07-09T10:18:17;4.97;;;4.53;;
34559;SDS011;20800;55.870;37.328;2022-07-09T10:20:44;5.10;;;4.00;;
34559;SDS011;20800;55.870;37.328;2022-07-09T10:23:22;4.57;;;4.18;;
34559;SDS011;20800;55.870;37.328;2022-07-09T10:25:49;4.63;;;4.20;;
34559;SDS011;20800;55.870;37.328;2022-07-09T10:28:18;5.40;;;4.80;;
34559;SDS011;20800;55.870;37.328;2022-07-09T10:30:45;4.97;;;4.40;;
34559;SDS011;20800;55.870;37.328;2022-07-09T10:36:21;4.82;;;4.43;;
34559;SDS011;20800;55.870;37.328;2022-07-09T10:38:53;5.88;;;4.40;;
34559;SDS011;20800;55.870;37.328;2022-07-09T10:41:21;5.28;;;4.88;;
34559;SDS011;20800;55.870;37.328;2022-07-09T10:43:51;4.60;;;4.20;;
34559;SDS011;20800;55.870;37.328;2022-07-09T10:46:18;5.13;;;4.70;;
34559;SDS011;20800;55.870;37.328;2022-07-09T10:48:44;6.28;;;4.60;;
34559;SDS011;20800;55.870;37.328;2022-07-09T10:51:21;7.18;;;4.80;;
34559;SDS011;20800;55.870;37.328;2022-07-09T10:53:48;8.95;;;5.13;;
34559;SDS011;20800;55.870;37.328;2022-07-09T10:56:17;6.10;;;5.30;;
34559;SDS011;20800;55.870;37.328;2022-07-09T10:58:47;6.10;;;5.60;;
34559;SDS011;20800;55.870;37.328;2022-07-09T11:01:20;5.68;;;4.68;;
34559;SDS011;20800;55.870;37.328;2022-07-09T11:03:50;6.63;;;5.32;;
34559;SDS011;20800;55.870;37.328;2022-07-09T11:06:16;11.60;;;5.60;;
34559;SDS011;20800;55.870;37.328;2022-07-09T11:08:43;6.35;;;5.82;;
34559;SDS011;20800;55.870;37.328;2022-07-09T11:11:09;6.40;;;5.80;;
34559;SDS011;20800;55.870;37.328;2022-07-09T11:13:35;10.52;;;7.13;;
34559;SDS011;20800;55.870;37.328;2022-07-09T11:16:01;7.55;;;6.35;;
34559;SDS011;20800;55.870;37.328;2022-07-09T11:18:28;8.85;;;6.28;;
34559;SDS011;20800;55.870;37.328;2022-07-09T11:20:54;6.28;;;5.60;;
34559;SDS011;20800;55.870;37.328;2022-07-09T11:23:22;11.50;;;6.20;;
34559;SDS011;20800;55.870;37.328;2022-07-09T11:25:48;10.25;;;5.65;;
34559;SDS011;20800;55.870;37.328;2022-07-09T11:28:23;8.23;;;5.43;;
34559;SDS011;20800;55.870;37.328;2022-07-09T11:31:01;6.10;;;5.53;;
34559;SDS011;20800;55.870;37.328;2022-07-09T11:33:28;7.53;;;6.82;;
34559;SDS011;20800;55.870;37.328;2022-07-09T11:36:15;7.55;;;6.03;;
34559;SDS011;20800;55.870;37.328;2022-07-09T11:38:49;7.90;;;5.57;;
34559;SDS011;20800;55.870;37.328;2022-07-09T11:41:16;6.43;;;5.70;;
34559;SDS011;20800;55.870;37.328;2022-07-09T11:43:46;12.32;;;6.40;;
34559;SDS011;20800;55.870;37.328;2022-07-09T11:46:20;6.30;;;5.22;;
34559;SDS011;20800;55.870;37.328;2022-07-09T11:48:53;8.82;;;6.22;;
34559;SDS011;20800;55.870;37.328;2022-07-09T11:51:32;8.95;;;5.50;;
34559;SDS011;20800;55.870;37.328;2022-07-09T11:54:00;6.07;;;5.07;;
34559;SDS011;20800;55.870;37.328;2022-07-09T11:56:26;5.80;;;5.18;;
34559;SDS011;20800;55.870;37.328;2022-07-09T11:58:52;5.22;;;4.70;;
34559;SDS011;20800;55.870;37.328;2022-07-09T12:01:18;5.47;;;4.63;;
34559;SDS011;20800;55.870;37.328;2022-07-09T12:03:48;5.97;;;4.40;;
34559;SDS011;20800;55.870;37.328;2022-07-09T12:06:15;5.07;;;4.10;;
34559;SDS011;20800;55.870;37.328;2022-07-09T12:08:42;6.20;;;4.30;;
34559;SDS011;20800;55.870;37.328;2022-07-09T12:11:08;3.75;;;3.45;;
34559;SDS011;20800;55.870;37.328;2022-07-09T12:13:34;4.07;;;3.67;;
34559;SDS011;20800;55.870;37.328;2022-07-09T12:16:00;4.75;;;2.80;;
34559;SDS011;20800;55.870;37.328;2022-07-09T12:18:26;5.15;;;3.17;;
34559;SDS011;20800;55.870;37.328;2022-07-09T12:20:53;4.28;;;2.92;;
34559;SDS011;20800;55.870;37.328;2022-07-09T12:23:19;2.58;;;2.35;;
34559;SDS011;20800;55.870;37.328;2022-07-09T12:25:46;2.80;;;2.45;;
34559;SDS011;20800;55.870;37.328;2022-07-09T12:28:12;3.38;;;3.08;;
34559;SDS011;20800;55.870;37.328;2022-07-09T12:30:38;4.80;;;3.00;;
34559;SDS011;20800;55.870;37.328;2022-07-09T12:33:04;2.50;;;2.30;;
34559;SDS011;20800;55.870;37.328;2022-07-09T12:35:30;2.95;;;2.75;;
34559;SDS011;20800;55.870;37.328;2022-07-09T12:37:56;2.97;;;2.53;;
34559;SDS011;20800;55.870;37.328;2022-07-09T12:40:22;2.60;;;2.40;;
34559;SDS011;20800;55.870;37.328;2022-07-09T12:42:48;3.08;;;2.60;;
34559;SDS011;20800;55.870;37.328;2022-07-09T12:45:14;4.40;;;3.08;;
34559;SDS011;20800;55.870;37.328;2022-07-09T12:47:40;5.68;;;2.65;;
34559;SDS011;20800;55.870;37.328;2022-07-09T12:50:06;4.18;;;3.30;;
34559;SDS011;20800;55.870;37.328;2022-07-09T12:52:34;5.25;;;3.83;;
34559;SDS011;20800;55.870;37.328;2022-07-09T12:55:01;10.07;;;3.42;;
34559;SDS011;20800;55.870;37.328;2022-07-09T12:57:28;4.28;;;3.22;;
34559;SDS011;20800;55.870;37.328;2022-07-09T12:59:54;11.32;;;4.82;;
34559;SDS011;20800;55.870;37.328;2022-07-09T13:02:20;3.60;;;3.30;;
34559;SDS011;20800;55.870;37.328;2022-07-09T13:04:46;4.25;;;3.67;;
34559;SDS011;20800;55.870;37.328;2022-07-09T13:07:12;5.55;;;3.70;;
34559;SDS011;20800;55.870;37.328;2022-07-09T13:09:39;5.82;;;3.80;;
34559;SDS011;20800;55.870;37.328;2022-07-09T13:12:05;4.18;;;3.78;;
34559;SDS011;20800;55.870;37.328;2022-07-09T13:14:31;5.22;;;3.70;;
34559;SDS011;20800;55.870;37.328;2022-07-09T13:16:57;4.63;;;4.18;;
34559;SDS011;20800;55.870;37.328;2022-07-09T13:19:23;6.45;;;5.72;;
34559;SDS011;20800;55.870;37.328;2022-07-09T13:21:50;4.32;;;3.92;;
34559;SDS011;20800;55.870;37.328;2022-07-09T13:24:16;4.50;;;4.10;;
34559;SDS011;20800;55.870;37.328;2022-07-09T13:26:42;5.05;;;3.25;;
34559;SDS011;20800;55.870;37.328;2022-07-09T13:29:08;4.13;;;3.72;;
34559;SDS011;20800;55.870;37.328;2022-07-09T13:31:34;8.02;;;4.70;;
34559;SDS011;20800;55.870;37.328;2022-07-09T13:34:00;5.55;;;4.43;;
34559;SDS011;20800;55.870;37.328;2022-07-09T13:36:26;6.80;;;4.22;;
34559;SDS011;20800;55.870;37.328;2022-07-09T13:38:52;12.05;;;4.60;;
34559;SDS011;20800;55.870;37.328;2022-07-09T13:41:18;5.35;;;4.32;;
34559;SDS011;20800;55.870;37.328;2022-07-09T13:43:44;4.60;;;4.25;;
34559;SDS011;20800;55.870;37.328;2022-07-09T13:46:13;4.97;;;4.22;;
34559;SDS011;20800;55.870;37.328;2022-07-09T13:48:39;7.95;;;5.35;;
34559;SDS011;20800;55.870;37.328;2022-07-09T13:51:05;8.45;;;4.70;;
34559;SDS011;20800;55.870;37.328;2022-07-09T13:53:31;5.05;;;4.47;;
34559;SDS011;20800;55.870;37.328;2022-07-09T13:55:58;5.10;;;4.60;;
34559;SDS011;20800;55.870;37.328;2022-07-09T13:58:24;6.75;;;4.80;;
34559;SDS011;20800;55.870;37.328;2022-07-09T14:00:50;5.72;;;4.88;;
34559;SDS011;20800;55.870;37.328;2022-07-09T14:03:16;5.75;;;5.30;;
34559;SDS011;20800;55.870;37.328;2022-07-09T14:05:43;6.05;;;5.18;;
34559;SDS011;20800;55.870;37.328;2022-07-09T14:08:09;6.75;;;4.85;;
34559;SDS011;20800;55.870;37.328;2022-07-09T14:10:35;7.35;;;4.70;;
34559;SDS011;20800;55.870;37.328;2022-07-09T14:13:01;6.93;;;4.82;;
34559;SDS011;20800;55.870;37.328;2022-07-09T14:15:28;15.82;;;5.93;;
34559;SDS011;20800;55.870;37.328;2022-07-09T14:17:54;8.80;;;5.65;;
34559;SDS011;20800;55.870;37.328;2022-07-09T14:20:21;6.07;;;5.30;;
34559;SDS011;20800;55.870;37.328;2022-07-09T14:22:48;5.90;;;5.32;;
34559;SDS011;20800;55.870;37.328;2022-07-09T14:25:14;7.40;;;5.97;;
34559;SDS011;20800;55.870;37.328;2022-07-09T14:27:41;6.13;;;5.18;;
34559;SDS011;20800;55.870;37.328;2022-07-09T14:30:07;7.40;;;5.65;;
34559;SDS011;20800;55.870;37.328;2022-07-09T14:32:34;9.68;;;6.25;;
34559;SDS011;20800;55.870;37.328;2022-07-09T14:35:00;11.65;;;6.10;;
34559;SDS011;20800;55.870;37.328;2022-07-09T14:37:27;8.90;;;6.25;;
34559;SDS011;20800;55.870;37.328;2022-07-09T14:39:55;6.78;;;6.10;;
34559;SDS011;20800;55.870;37.328;2022-07-09T14:42:21;9.32;;;6.07;;
34559;SDS011;20800;55.870;37.328;2022-07-09T14:44:47;6.53;;;5.43;;
34559;SDS011;20800;55.870;37.328;2022-07-09T14:47:15;6.95;;;5.88;;
34559;SDS011;20800;55.870;37.328;2022-07-09T14:49:41;7.15;;;6.60;;
34559;SDS011;20800;55.870;37.328;2022-07-09T14:52:14;9.63;;;6.18;;
34559;SDS011;20800;55.870;37.328;2022-07-09T14:54:41;6.75;;;5.40;;
34559;SDS011;20800;55.870;37.328;2022-07-09T14:57:07;23.90;;;14.98;;
34559;SDS011;20800;55.870;37.328;2022-07-09T14:59:33;19.50;;;13.48;;
34559;SDS011;20800;55.870;37.328;2022-07-09T15:01:59;19.95;;;10.23;;
34559;SDS011;20800;55.870;37.328;2022-07-09T15:04:25;9.60;;;6.68;;
34559;SDS011;20800;55.870;37.328;2022-07-09T15:06:51;9.77;;;7.22;;
34559;SDS011;20800;55.870;37.328;2022-07-09T15:09:17;10.77;;;7.65;;
34559;SDS011;20800;55.870;37.328;2022-07-09T15:11:44;8.85;;;7.88;;
34559;SDS011;20800;55.870;37.328;2022-07-09T15:14:10;12.93;;;6.65;;
34559;SDS011;20800;55.870;37.328;2022-07-09T15:16:36;15.52;;;9.82;;
34559;SDS011;20800;55.870;37.328;2022-07-09T15:19:04;9.05;;;7.50;;
34559;SDS011;20800;55.870;37.328;2022-07-09T15:21:30;10.20;;;7.03;;
34559;SDS011;20800;55.870;37.328;2022-07-09T15:23:57;7.75;;;6.90;;
34559;SDS011;20800;55.870;37.328;2022-07-09T15:26:23;8.75;;;7.07;;
34559;SDS011;20800;55.870;37.328;2022-07-09T15:28:49;10.48;;;7.47;;
34559;SDS011;20800;55.870;37.328;2022-07-09T15:31:15;13.98;;;8.48;;
34559;SDS011;20800;55.870;37.328;2022-07-09T15:33:41;12.77;;;8.52;;
34559;SDS011;20800;55.870;37.328;2022-07-09T15:36:07;14.05;;;10.20;;
34559;SDS011;20800;55.870;37.328;2022-07-09T15:38:34;13.48;;;7.72;;
34559;SDS011;20800;55.870;37.328;2022-07-09T15:41:00;9.77;;;7.35;;
34559;SDS011;20800;55.870;37.328;2022-07-09T15:43:27;10.05;;;7.13;;
34559;SDS011;20800;55.870;37.328;2022-07-09T15:45:53;8.90;;;8.00;;
34559;SDS011;20800;55.870;37.328;2022-07-09T15:48:19;9.55;;;7.25;;
34559;SDS011;20800;55.870;37.328;2022-07-09T15:50:47;7.85;;;7.07;;
34559;SDS011;20800;55.870;37.328;2022-07-09T15:53:13;9.13;;;7.90;;
34559;SDS011;20800;55.870;37.328;2022-07-09T15:55:39;11.93;;;7.75;;
34559;SDS011;20800;55.870;37.328;2022-07-09T15:58:05;12.60;;;7.85;;
34559;SDS011;20800;55.870;37.328;2022-07-09T16:00:31;9.95;;;6.78;;
34559;SDS011;20800;55.870;37.328;2022-07-09T16:02:57;11.65;;;7.82;;
34559;SDS011;20800;55.870;37.328;2022-07-09T16:05:24;9.25;;;6.88;;
34559;SDS011;20800;55.870;37.328;2022-07-09T16:07:50;9.13;;;7.40;;
34559;SDS011;20800;55.870;37.328;2022-07-09T16:10:16;8.32;;;7.50;;
34559;SDS011;20800;55.870;37.328;2022-07-09T16:12:42;8.63;;;7.72;;
34559;SDS011;20800;55.870;37.328;2022-07-09T16:15:22;11.73;;;10.30;;
34559;SDS011;20800;55.870;37.328;2022-07-09T16:17:50;12.00;;;8.57;;
34559;SDS011;20800;55.870;37.328;2022-07-09T16:20:18;8.63;;;7.65;;
34559;SDS011;20800;55.870;37.328;2022-07-09T16:22:45;9.10;;;8.15;;
34559;SDS011;20800;55.870;37.328;2022-07-09T16:25:12;9.40;;;7.53;;
34559;SDS011;20800;55.870;37.328;2022-07-09T16:27:40;8.23;;;7.53;;
34559;SDS011;20800;55.870;37.328;2022-07-09T16:30:09;10.88;;;8.32;;
34559;SDS011;20800;55.870;37.328;2022-07-09T16:32:36;8.18;;;7.50;;
34559;SDS011;20800;55.870;37.328;2022-07-09T16:35:03;9.82;;;8.10;;
34559;SDS011;20800;55.870;37.328;2022-07-09T16:37:30;9.90;;;8.20;;
34559;SDS011;20800;55.870;37.328;2022-07-09T16:39:59;9.35;;;8.55;;
34559;SDS011;20800;55.870;37.328;2022-07-09T16:42:26;9.80;;;8.57;;
34559;SDS011;20800;55.870;37.328;2022-07-09T16:44:52;9.40;;;8.10;;
34559;SDS011;20800;55.870;37.328;2022-07-09T16:47:19;11.60;;;8.93;;
34559;SDS011;20800;55.870;37.328;2022-07-09T16:49:45;9.85;;;8.38;;
34559;SDS011;20800;55.870;37.328;2022-07-09T16:52:11;10.15;;;7.85;;
34559;SDS011;20800;55.870;37.328;2022-07-09T16:54:37;14.80;;;9.23;;
34559;SDS011;20800;55.870;37.328;2022-07-09T16:57:04;9.30;;;8.10;;
34559;SDS011;20800;55.870;37.328;2022-07-09T16:59:30;18.23;;;8.90;;
34559;SDS011;20800;55.870;37.328;2022-07-09T17:01:56;10.32;;;9.10;;
34559;SDS011;20800;55.870;37.328;2022-07-09T17:04:22;16.30;;;10.10;;
34559;SDS011;20800;55.870;37.328;2022-07-09T17:06:48;12.57;;;9.38;;
34559;SDS011;20800;55.870;37.328;2022-07-09T17:09:14;9.85;;;8.80;;
34559;SDS011;20800;55.870;37.328;2022-07-09T17:11:40;9.75;;;8.82;;
34559;SDS011;20800;55.870;37.328;2022-07-09T17:14:06;13.82;;;8.77;;
34559;SDS011;20800;55.870;37.328;2022-07-09T17:16:32;9.88;;;8.90;;
34559;SDS011;20800;55.870;37.328;2022-07-09T17:18:58;10.15;;;8.15;;
34559;SDS011;20800;55.870;37.328;2022-07-09T17:21:24;10.13;;;9.23;;
34559;SDS011;20800;55.870;37.328;2022-07-09T17:23:50;10.10;;;9.20;;
34559;SDS011;20800;55.870;37.328;2022-07-09T17:26:16;11.07;;;8.57;;
34559;SDS011;20800;55.870;37.328;2022-07-09T17:28:42;11.63;;;8.95;;
34559;SDS011;20800;55.870;37.328;2022-07-09T17:31:08;9.00;;;8.10;;
34559;SDS011;20800;55.870;37.328;2022-07-09T17:33:34;9.57;;;8.50;;
34559;SDS011;20800;55.870;37.328;2022-07-09T17:36:00;10.82;;;9.07;;
34559;SDS011;20800;55.870;37.328;2022-07-09T17:38:26;10.48;;;8.43;;
34559;SDS011;20800;55.870;37.328;2022-07-09T17:40:55;9.82;;;8.88;;
34559;SDS011;20800;55.870;37.328;2022-07-09T17:43:21;12.00;;;9.63;;
34559;SDS011;20800;55.870;37.328;2022-07-09T17:45:48;11.48;;;9.15;;
34559;SDS011;20800;55.870;37.328;2022-07-09T17:48:14;14.70;;;9.50;;
34559;SDS011;20800;55.870;37.328;2022-07-09T17:50:40;10.35;;;9.35;;
34559;SDS011;20800;55.870;37.328;2022-07-09T17:53:07;10.60;;;9.60;;
34559;SDS011;20800;55.870;37.328;2022-07-09T17:55:33;12.88;;;9.80;;
34559;SDS011;20800;55.870;37.328;2022-07-09T17:58:00;11.57;;;10.00;;
34559;SDS011;20800;55.870;37.328;2022-07-09T18:00:29;12.25;;;9.45;;
34559;SDS011;20800;55.870;37.328;2022-07-09T18:02:57;10.07;;;9.18;;
34559;SDS011;20800;55.870;37.328;2022-07-09T18:05:23;10.65;;;9.70;;
34559;SDS011;20800;55.870;37.328;2022-07-09T18:07:50;20.65;;;10.43;;
34559;SDS011;20800;55.870;37.328;2022-07-09T18:10:16;12.43;;;10.05;;
34559;SDS011;20800;55.870;37.328;2022-07-09T18:12:42;11.35;;;10.32;;
34559;SDS011;20800;55.870;37.328;2022-07-09T18:15:09;11.30;;;10.25;;
34559;SDS011;20800;55.870;37.328;2022-07-09T18:17:36;12.63;;;11.27;;
34559;SDS011;20800;55.870;37.328;2022-07-09T18:20:03;12.15;;;10.23;;
34559;SDS011;20800;55.870;37.328;2022-07-09T18:22:30;12.57;;;11.35;;
34559;SDS011;20800;55.870;37.328;2022-07-09T18:24:57;13.80;;;11.68;;
34559;SDS011;20800;55.870;37.328;2022-07-09T18:27:23;18.80;;;11.68;;
34559;SDS011;20800;55.870;37.328;2022-07-09T18:29:50;11.88;;;10.63;;
34559;SDS011;20800;55.870;37.328;2022-07-09T18:32:16;12.68;;;11.38;;
34559;SDS011;20800;55.870;37.328;2022-07-09T18:34:43;12.70;;;10.93;;
34559;SDS011;20800;55.870;37.328;2022-07-09T18:37:10;16.83;;;11.43;;
34559;SDS011;20800;55.870;37.328;2022-07-09T18:39:36;12.52;;;11.15;;
34559;SDS011;20800;55.870;37.328;2022-07-09T18:42:02;15.15;;;10.60;;
34559;SDS011;20800;55.870;37.328;2022-07-09T18:44:29;13.50;;;11.45;;
34559;SDS011;20800;55.870;37.328;2022-07-09T18:46:58;13.10;;;11.73;;
34559;SDS011;20800;55.870;37.328;2022-07-09T18:49:25;16.90;;;12.00;;
34559;SDS011;20800;55.870;37.328;2022-07-09T18:51:51;13.93;;;12.50;;
34559;SDS011;20800;55.870;37.328;2022-07-09T18:54:17;16.55;;;11.75;;
34559;SDS011;20800;55.870;37.328;2022-07-09T18:56:43;17.13;;;11.82;;
34559;SDS011;20800;55.870;37.328;2022-07-09T18:59:09;17.60;;;13.23;;
34559;SDS011;20800;55.870;37.328;2022-07-09T19:01:35;16.25;;;12.77;;
34559;SDS011;20800;55.870;37.328;2022-07-09T19:04:01;15.27;;;12.60;;
34559;SDS011;20800;55.870;37.328;2022-07-09T19:06:27;17.75;;;12.93;;
34559;SDS011;20800;55.870;37.328;2022-07-09T19:08:54;14.23;;;12.63;;
34559;SDS011;20800;55.870;37.328;2022-07-09T19:11:22;23.63;;;16.30;;
34559;SDS011;20800;55.870;37.328;2022-07-09T19:13:52;16.23;;;13.43;;
34559;SDS011;20800;55.870;37.328;2022-07-09T19:16:19;18.42;;;13.35;;
34559;SDS011;20800;55.870;37.328;2022-07-09T19:18:46;15.15;;;13.73;;
34559;SDS011;20800;55.870;37.328;2022-07-09T19:21:13;14.85;;;13.15;;
34559;SDS011;20800;55.870;37.328;2022-07-09T19:23:40;17.45;;;12.80;;
34559;SDS011;20800;55.870;37.328;2022-07-09T19:26:07;18.65;;;13.90;;
34559;SDS011;20800;55.870;37.328;2022-07-09T19:28:33;15.52;;;14.00;;
34559;SDS011;20800;55.870;37.328;2022-07-09T19:30:59;18.55;;;14.52;;
34559;SDS011;20800;55.870;37.328;2022-07-09T19:33:44;18.33;;;14.65;;
34559;SDS011;20800;55.870;37.328;2022-07-09T19:36:26;19.73;;;14.65;;
34559;SDS011;20800;55.870;37.328;2022-07-09T19:38:53;17.48;;;14.98;;
34559;SDS011;20800;55.870;37.328;2022-07-09T19:41:19;18.13;;;14.90;;
34559;SDS011;20800;55.870;37.328;2022-07-09T19:43:45;18.17;;;14.13;;
34559;SDS011;20800;55.870;37.328;2022-07-09T19:46:11;18.60;;;15.23;;
34559;SDS011;20800;55.870;37.328;2022-07-09T19:48:37;20.35;;;16.50;;
34559;SDS011;20800;55.870;37.328;2022-07-09T19:51:04;20.05;;;16.05;;
34559;SDS011;20800;55.870;37.328;2022-07-09T19:53:30;18.00;;;15.68;;
34559;SDS011;20800;55.870;37.328;2022-07-09T19:55:56;20.80;;;15.10;;
34559;SDS011;20800;55.870;37.328;2022-07-09T19:58:22;24.08;;;15.75;;
34559;SDS011;20800;55.870;37.328;2022-07-09T20:00:48;23.88;;;16.58;;
34559;SDS011;20800;55.870;37.328;2022-07-09T20:03:14;22.15;;;15.95;;
34559;SDS011;20800;55.870;37.328;2022-07-09T20:05:40;17.90;;;14.93;;
34559;SDS011;20800;55.870;37.328;2022-07-09T20:08:06;18.73;;;15.02;;
34559;SDS011;20800;55.870;37.328;2022-07-09T20:10:32;20.92;;;15.23;;
34559;SDS011;20800;55.870;37.328;2022-07-09T20:12:58;19.95;;;14.88;;
34559;SDS011;20800;55.870;37.328;2022-07-09T20:15:24;18.23;;;14.80;;
34559;SDS011;20800;55.870;37.328;2022-07-09T20:17:52;19.85;;;14.57;;
34559;SDS011;20800;55.870;37.328;2022-07-09T20:20:18;18.17;;;14.68;;
34559;SDS011;20800;55.870;37.328;2022-07-09T20:22:44;23.73;;;14.88;;
34559;SDS011;20800;55.870;37.328;2022-07-09T20:25:11;21.73;;;15.23;;
34559;SDS011;20800;55.870;37.328;2022-07-09T20:27:37;41.17;;;22.55;;
34559;SDS011;20800;55.870;37.328;2022-07-09T20:30:03;20.70;;;14.68;;
34559;SDS011;20800;55.870;37.328;2022-07-09T20:32:29;18.02;;;14.55;;
34559;SDS011;20800;55.870;37.328;2022-07-09T20:34:55;27.50;;;14.18;;
34559;SDS011;20800;55.870;37.328;2022-07-09T20:37:21;18.75;;;13.93;;
34559;SDS011;20800;55.870;37.328;2022-07-09T20:39:47;18.33;;;14.15;;
34559;SDS011;20800;55.870;37.328;2022-07-09T20:42:13;19.55;;;14.48;;
34559;SDS011;20800;55.870;37.328;2022-07-09T20:44:39;23.45;;;14.20;;
34559;SDS011;20800;55.870;37.328;2022-07-09T20:47:05;21.73;;;14.20;;
34559;SDS011;20800;55.870;37.328;2022-07-09T20:49:31;20.80;;;15.02;;
34559;SDS011;20800;55.870;37.328;2022-07-09T20:51:57;20.35;;;13.45;;
34559;SDS011;20800;55.870;37.328;2022-07-09T20:54:23;16.23;;;14.27;;
34559;SDS011;20800;55.870;37.328;2022-07-09T20:56:49;19.88;;;14.80;;
34559;SDS011;20800;55.870;37.328;2022-07-09T20:59:15;19.17;;;13.98;;
34559;SDS011;20800;55.870;37.328;2022-07-09T21:01:41;18.23;;;14.60;;
34559;SDS011;20800;55.870;37.328;2022-07-09T21:04:07;17.88;;;13.95;;
34559;SDS011;20800;55.870;37.328;2022-07-09T21:06:33;15.98;;;14.27;;
34559;SDS011;20800;55.870;37.328;2022-07-09T21:08:59;14.77;;;13.23;;
34559;SDS011;20800;55.870;37.328;2022-07-09T21:11:24;20.63;;;13.68;;
34559;SDS011;20800;55.870;37.328;2022-07-09T21:13:50;15.35;;;12.68;;
34559;SDS011;20800;55.870;37.328;2022-07-09T21:16:16;17.52;;;13.77;;
34559;SDS011;20800;55.870;37.328;2022-07-09T21:18:42;18.27;;;14.82;;
34559;SDS011;20800;55.870;37.328;2022-07-09T21:21:11;23.02;;;13.90;;
34559;SDS011;20800;55.870;37.328;2022-07-09T21:23:38;21.58;;;14.13;;
34559;SDS011;20800;55.870;37.328;2022-07-09T21:26:04;20.85;;;14.00;;
34559;SDS011;20800;55.870;37.328;2022-07-09T21:28:30;20.35;;;14.43;;
34559;SDS011;20800;55.870;37.328;2022-07-09T21:30:57;18.50;;;13.13;;
34559;SDS011;20800;55.870;37.328;2022-07-09T21:33:23;24.33;;;13.35;;
34559;SDS011;20800;55.870;37.328;2022-07-09T21:35:49;13.98;;;12.50;;
34559;SDS011;20800;55.870;37.328;2022-07-09T21:38:15;22.65;;;16.35;;
34559;SDS011;20800;55.870;37.328;2022-07-09T21:40:41;21.88;;;14.02;;
34559;SDS011;20800;55.870;37.328;2022-07-09T21:43:07;22.17;;;14.07;;
34559;SDS011;20800;55.870;37.328;2022-07-09T21:45:33;16.40;;;13.68;;
34559;SDS011;20800;55.870;37.328;2022-07-09T21:47:59;17.83;;;13.32;;
34559;SDS011;20800;55.870;37.328;2022-07-09T21:50:25;15.85;;;13.18;;
34559;SDS011;20800;55.870;37.328;2022-07-09T21:52:51;16.52;;;13.35;;
34559;SDS011;20800;55.870;37.328;2022-07-09T21:55:17;19.38;;;13.90;;
34559;SDS011;20800;55.870;37.328;2022-07-09T21:57:43;17.63;;;13.25;;
34559;SDS011;20800;55.870;37.328;2022-07-09T22:00:12;21.42;;;13.07;;
34559;SDS011;20800;55.870;37.328;2022-07-09T22:02:45;16.70;;;14.25;;
34559;SDS011;20800;55.870;37.328;2022-07-09T22:05:11;14.95;;;13.45;;
34559;SDS011;20800;55.870;37.328;2022-07-09T22:07:38;15.73;;;13.65;;
34559;SDS011;20800;55.870;37.328;2022-07-09T22:10:04;15.57;;;13.77;;
34559;SDS011;20800;55.870;37.328;2022-07-09T22:12:31;17.75;;;13.13;;
34559;SDS011;20800;55.870;37.328;2022-07-09T22:14:57;18.02;;;14.95;;
34559;SDS011;20800;55.870;37.328;2022-07-09T22:17:23;15.15;;;13.55;;
34559;SDS011;20800;55.870;37.328;2022-07-09T22:19:49;14.15;;;12.73;;
34559;SDS011;20800;55.870;37.328;2022-07-09T22:22:15;16.63;;;13.02;;
34559;SDS011;20800;55.870;37.328;2022-07-09T22:24:42;17.17;;;14.02;;
34559;SDS011;20800;55.870;37.328;2022-07-09T22:27:08;20.77;;;13.50;;
34559;SDS011;20800;55.870;37.328;2022-07-09T22:29:34;14.40;;;12.52;;
34559;SDS011;20800;55.870;37.328;2022-07-09T22:32:00;20.42;;;13.10;;
34559;SDS011;20800;55.870;37.328;2022-07-09T22:34:26;15.00;;;11.85;;
34559;SDS011;20800;55.870;37.328;2022-07-09T22:36:52;15.88;;;12.50;;
34559;SDS011;20800;55.870;37.328;2022-07-09T22:39:18;20.80;;;13.95;;
34559;SDS011;20800;55.870;37.328;2022-07-09T22:41:44;16.63;;;14.35;;
34559;SDS011;20800;55.870;37.328;2022-07-09T22:44:10;20.38;;;14.52;;
34559;SDS011;20800;55.870;37.328;2022-07-09T22:46:36;24.63;;;15.43;;
34559;SDS011;20800;55.870;37.328;2022-07-09T22:49:04;20.75;;;16.55;;
34559;SDS011;20800;55.870;37.328;2022-07-09T22:51:30;21.55;;;16.60;;
34559;SDS011;20800;55.870;37.328;2022-07-09T22:53:56;21.40;;;16.50;;
34559;SDS011;20800;55.870;37.328;2022-07-09T22:56:22;21.48;;;16.67;;
34559;SDS011;20800;55.870;37.328;2022-07-09T22:58:48;19.30;;;17.35;;
34559;SDS011;20800;55.870;37.328;2022-07-09T23:01:14;20.65;;;17.00;;
34559;SDS011;20800;55.870;37.328;2022-07-09T23:03:40;21.52;;;16.45;;
34559;SDS011;20800;55.870;37.328;2022-07-09T23:06:05;19.42;;;16.23;;
34559;SDS011;20800;55.870;37.328;2022-07-09T23:08:31;26.15;;;17.98;;
34559;SDS011;20800;55.870;37.328;2022-07-09T23:11:16;23.73;;;18.65;;
34559;SDS011;20800;55.870;37.328;2022-07-09T23:13:41;19.02;;;15.07;;
34559;SDS011;20800;55.870;37.328;2022-07-09T23:16:07;24.73;;;20.52;;
34559;SDS011;20800;55.870;37.328;2022-07-09T23:18:33;20.23;;;17.02;;
34559;SDS011;20800;55.870;37.328;2022-07-09T23:21:00;21.00;;;18.70;;
34559;SDS011;20800;55.870;37.328;2022-07-09T23:23:25;20.73;;;18.63;;
34559;SDS011;20800;55.870;37.328;2022-07-09T23:25:52;19.00;;;16.50;;
34559;SDS011;20800;55.870;37.328;2022-07-09T23:28:19;24.90;;;17.45;;
34559;SDS011;20800;55.870;37.328;2022-07-09T23:30:44;23.08;;;15.23;;
34559;SDS011;20800;55.870;37.328;2022-07-09T23:33:10;15.13;;;13.55;;
34559;SDS011;20800;55.870;37.328;2022-07-09T23:35:36;13.90;;;11.98;;
34559;SDS011;20800;55.870;37.328;2022-07-09T23:38:02;13.00;;;11.55;;
34559;SDS011;20800;55.870;37.328;2022-07-09T23:40:29;12.98;;;11.68;;
34559;SDS011;20800;55.870;37.328;2022-07-09T23:42:55;13.43;;;11.48;;
34559;SDS011;20800;55.870;37.328;2022-07-09T23:45:21;14.43;;;12.95;;
34559;SDS011;20800;55.870;37.328;2022-07-09T23:47:47;14.18;;;12.88;;
34559;SDS011;20800;55.870;37.328;2022-07-09T23:50:13;14.55;;;13.30;;
34559;SDS011;20800;55.870;37.328;2022-07-09T23:52:40;18.42;;;15.38;;
34559;SDS011;20800;55.870;37.328;2022-07-09T23:55:07;17.50;;;15.68;;
34559;SDS011;20800;55.870;37.328;2022-07-09T23:57:34;15.40;;;13.35;;
